Chipinge Airport


Codes: FVCH/CHJ
Name: Chipinge Airport
City: Chipinge
Country: Zimbabwe
Elevation: 3720 ft.

Photos at Chipinge Airport


   Photos courtesy of SpottingLog. You can add your own sightings and photos by signing up for a free trial today.



No photos found.

Weather at Chipinge Airport


Time (UTC)DescriptionTempratureWindCloud coverageVisibilityPressureHumidity
13-Jun-2024 03:00Clear Sky8°C2 mph, NE0%10000m1025hPa82%
13-Jun-2024 06:00Clear Sky10°C0 mph, NE0%10000m1025hPa72%
13-Jun-2024 09:00Clear Sky16°C4 mph, S0%10000m1024hPa44%
13-Jun-2024 12:00Clear Sky22°C7 mph, SE0%10000m1021hPa20%
13-Jun-2024 15:00Clear Sky17°C7 mph, SE0%10000m1022hPa33%
13-Jun-2024 18:00Clear Sky11°C2 mph, E0%10000m1025hPa51%
13-Jun-2024 21:00Clear Sky10°C2 mph, E0%10000m1025hPa56%
14-Jun-2024 00:00Clear Sky8°C2 mph, E0%10000m1025hPa66%
14-Jun-2024 03:00Clear Sky7°C2 mph, NE0%10000m1026hPa81%
14-Jun-2024 06:00Clear Sky13°C2 mph, NE0%10000m1027hPa67%
14-Jun-2024 09:00Clear Sky19°C7 mph, SE0%10000m1026hPa35%
14-Jun-2024 12:00Clear Sky21°C9 mph, SE0%10000m1022hPa27%
14-Jun-2024 15:00Clear Sky16°C4 mph, SE0%10000m1023hPa37%
14-Jun-2024 18:00Clear Sky10°C2 mph, E0%10000m1025hPa54%
14-Jun-2024 21:00Clear Sky10°C2 mph, NE0%10000m1025hPa58%
15-Jun-2024 00:00Clear Sky9°C2 mph, NE0%10000m1024hPa62%
15-Jun-2024 03:00Clear Sky8°C0 mph, NE0%10000m1024hPa67%
15-Jun-2024 06:00Clear Sky14°C0 mph, SE0%10000m1025hPa45%
15-Jun-2024 09:00Clear Sky20°C4 mph, SE0%10000m1023hPa38%
15-Jun-2024 12:00Clear Sky22°C7 mph, SE0%10000m1019hPa34%
15-Jun-2024 15:00Clear Sky18°C7 mph, SE6%10000m1020hPa46%
15-Jun-2024 18:00Clear Sky12°C4 mph, E7%10000m1023hPa65%
15-Jun-2024 21:00Clear Sky11°C4 mph, E0%10000m1023hPa66%
16-Jun-2024 00:00Clear Sky9°C4 mph, NE0%10000m1022hPa81%
16-Jun-2024 03:00Clear Sky9°C2 mph, NE0%10000m1023hPa92%
16-Jun-2024 06:00Clear Sky14°C2 mph, E0%10000m1024hPa75%
16-Jun-2024 09:00Clear Sky21°C4 mph, SE0%10000m1022hPa41%
16-Jun-2024 12:00Clear Sky22°C7 mph, SE0%10000m1018hPa33%
16-Jun-2024 15:00Clear Sky18°C7 mph, E5%10000m1019hPa45%
16-Jun-2024 18:00Clear Sky12°C4 mph, E3%10000m1022hPa63%
16-Jun-2024 21:00Clear Sky11°C4 mph, NE0%10000m1022hPa73%
17-Jun-2024 00:00Clear Sky9°C4 mph, NE0%10000m1022hPa86%
17-Jun-2024 03:00Clear Sky9°C2 mph, NE1%10000m1022hPa88%
17-Jun-2024 06:00Clear Sky15°C2 mph, NE1%10000m1023hPa62%
17-Jun-2024 09:00Clear Sky21°C2 mph, SE0%10000m1021hPa38%
17-Jun-2024 12:00Clear Sky23°C4 mph, SE1%10000m1018hPa31%
17-Jun-2024 15:00Clear Sky18°C7 mph, E1%10000m1019hPa43%
17-Jun-2024 18:00Clear Sky12°C4 mph, NE1%10000m1021hPa63%
17-Jun-2024 21:00Clear Sky11°C4 mph, NE0%10000m1021hPa76%
18-Jun-2024 00:00Clear Sky10°C4 mph, NE0%10000m1020hPa79%